Time;durP1;ratioP1;P1;durP2;ratioP2;P2;SDS_P1;SDS_P2;PMS_P1;PMS_P2;Temp;Humidity;BMP_temperature;BMP_pressure;BME280_temperature;BME280_humidity;BME280_pressure;Samples;Min_cycle;Max_cycle;Signal;HPM_P1;HPM_P2
2022/07/25 00:00:26;;;;;;;24.70;16.08;;;;;;;21.75;100.00;100741.28;5039665;28;20051;-78
2022/07/25 00:02:52;;;;;;;24.65;15.93;;;;;;;21.51;100.00;100742.50;5079451;28;20487;-79
2022/07/25 00:05:18;;;;;;;22.23;14.10;;;;;;;21.36;100.00;100731.38;5061622;28;20048;-78
2022/07/25 00:07:43;;;;;;;25.65;14.95;;;;;;;21.16;100.00;100727.50;5070458;28;20041;-78
2022/07/25 00:10:09;;;;;;;20.20;13.57;;;;;;;21.30;100.00;100729.38;5076781;28;20115;-78
2022/07/25 00:12:35;;;;;;;18.92;13.80;;;;;;;21.26;100.00;100725.25;5074883;28;20061;-79
2022/07/25 00:15:00;;;;;;;20.38;14.80;;;;;;;21.16;100.00;100716.34;5062395;28;20028;-80
2022/07/25 00:17:26;;;;;;;23.35;14.07;;;;;;;21.00;100.00;100711.84;5078832;28;20060;-79
2022/07/25 00:19:52;;;;;;;20.58;14.02;;;;;;;20.75;100.00;100712.16;5061206;28;20387;-79
2022/07/25 00:22:17;;;;;;;21.60;13.98;;;;;;;20.77;100.00;100704.47;5058814;28;20057;-79
2022/07/25 00:24:43;;;;;;;18.85;13.88;;;;;;;20.76;100.00;100699.97;5060300;28;20068;-79
2022/07/25 00:27:08;;;;;;;18.98;14.43;;;;;;;20.67;100.00;100701.13;5072773;28;20035;-79
2022/07/25 00:29:34;;;;;;;22.48;14.88;;;;;;;20.56;100.00;100708.88;5074983;28;20129;-79
2022/07/25 00:32:00;;;;;;;23.35;14.65;;;;;;;20.55;100.00;100692.34;5041669;28;20161;-79
2022/07/25 00:34:26;;;;;;;22.35;14.50;;;;;;;20.59;100.00;100696.47;5055854;28;20400;-79
2022/07/25 00:36:51;;;;;;;25.63;16.23;;;;;;;20.54;100.00;100696.19;5022359;28;20041;-79
2022/07/25 00:39:17;;;;;;;21.80;15.35;;;;;;;20.51;100.00;100691.00;5022115;28;20038;-81
2022/07/25 00:41:43;;;;;;;21.33;14.45;;;;;;;20.49;100.00;100682.00;5051590;28;20039;-81
2022/07/25 00:44:09;;;;;;;19.45;13.63;;;;;;;20.46;100.00;100687.94;5050542;28;20044;-80
2022/07/25 00:46:37;;;;;;;19.83;14.40;;;;;;;20.47;100.00;100692.44;5045526;28;20037;-82
2022/07/25 00:49:02;;;;;;;20.17;14.65;;;;;;;20.49;100.00;100693.13;5058161;28;20033;-81
2022/07/25 00:51:28;;;;;;;19.58;14.20;;;;;;;20.47;100.00;100687.75;5058080;28;20091;-81
2022/07/25 00:53:56;;;;;;;19.80;15.35;;;;;;;20.41;100.00;100682.94;5055032;28;20097;-81
2022/07/25 00:56:22;;;;;;;23.55;14.88;;;;;;;20.41;100.00;100682.94;5051746;28;20503;-82
2022/07/25 00:58:47;;;;;;;21.63;14.35;;;;;;;20.51;100.00;100677.97;5058398;28;20029;-81
2022/07/25 01:01:13;;;;;;;23.13;14.98;;;;;;;20.41;100.00;100685.72;5057498;28;20040;-82
2022/07/25 01:03:38;;;;;;;23.55;15.13;;;;;;;20.41;100.00;100682.06;5035620;28;20435;-81
2022/07/25 01:06:04;;;;;;;25.60;15.88;;;;;;;20.45;100.00;100667.59;5037196;28;20056;-81
2022/07/25 01:08:30;;;;;;;21.05;15.80;;;;;;;20.38;100.00;100674.97;5053734;28;20183;-81
2022/07/25 01:10:56;;;;;;;20.00;14.07;;;;;;;20.26;100.00;100660.69;5038920;28;20037;-81
2022/07/25 01:13:21;;;;;;;23.95;15.60;;;;;;;20.37;100.00;100670.47;5074013;28;20043;-80
2022/07/25 01:15:46;;;;;;;22.63;15.32;;;;;;;20.30;100.00;100664.81;5038345;28;20073;-80
2022/07/25 01:18:12;;;;;;;23.27;14.52;;;;;;;20.34;100.00;100654.16;5064313;28;20033;-78
2022/07/25 01:20:38;;;;;;;20.98;15.73;;;;;;;20.36;100.00;100652.91;5063249;28;20033;-78
2022/07/25 01:23:03;;;;;;;24.67;15.55;;;;;;;20.44;100.00;100643.63;5055813;28;20037;-78
2022/07/25 01:25:29;;;;;;;20.85;15.25;;;;;;;20.55;100.00;100640.34;5073090;28;20051;-79
2022/07/25 01:27:56;;;;;;;22.80;15.10;;;;;;;20.62;100.00;100648.78;5046349;28;20071;-79
2022/07/25 01:30:23;;;;;;;22.17;15.43;;;;;;;20.69;100.00;100652.59;5066771;28;20056;-79
2022/07/25 01:32:48;;;;;;;21.98;15.63;;;;;;;20.68;100.00;100636.94;5089207;28;20040;-79
2022/07/25 01:35:14;;;;;;;23.25;15.52;;;;;;;20.65;100.00;100639.25;5087442;28;20492;-79
2022/07/25 01:37:40;;;;;;;28.10;16.52;;;;;;;20.73;100.00;100637.22;5069113;28;20025;-79
2022/07/25 01:40:07;;;;;;;28.42;16.33;;;;;;;20.74;100.00;100636.16;5084148;28;20037;-78
2022/07/25 01:42:32;;;;;;;26.13;17.98;;;;;;;20.72;100.00;100617.94;5085331;28;20040;-79
2022/07/25 01:44:58;;;;;;;20.88;16.08;;;;;;;20.85;100.00;100628.38;5065903;28;20036;-79
2022/07/25 01:47:24;;;;;;;27.88;16.33;;;;;;;20.85;100.00;100632.00;5052571;28;20063;-79
2022/07/25 01:49:50;;;;;;;23.85;15.27;;;;;;;20.81;100.00;100627.00;5083477;28;20024;-78
2022/07/25 01:52:15;;;;;;;24.45;16.48;;;;;;;20.81;100.00;100625.13;5049498;28;20021;-79
2022/07/25 01:54:41;;;;;;;27.75;16.33;;;;;;;20.83;100.00;100613.78;5057357;28;20056;-79
2022/07/25 01:57:07;;;;;;;21.63;14.45;;;;;;;20.85;100.00;100614.44;5077841;28;20111;-79
2022/07/25 01:59:37;;;;;;;23.25;15.10;;;;;;;20.84;100.00;100615.50;5086506;28;20086;-78
2022/07/25 02:02:04;;;;;;;27.38;14.52;;;;;;;20.79;100.00;100613.31;5067362;28;20032;-78
2022/07/25 02:04:30;;;;;;;21.42;15.38;;;;;;;20.78;100.00;100608.81;5085196;28;20037;-79
2022/07/25 02:06:55;;;;;;;21.40;15.63;;;;;;;20.81;100.00;100608.41;5085227;28;20035;-79
2022/07/25 02:09:21;;;;;;;18.17;13.70;;;;;;;20.84;100.00;100612.72;5084063;28;20035;-78
2022/07/25 02:11:46;;;;;;;21.20;13.32;;;;;;;20.83;100.00;100600.72;5069757;28;20033;-79
2022/07/25 02:14:12;;;;;;;18.35;13.75;;;;;;;20.86;100.00;100605.91;5083263;28;20048;-79
2022/07/25 02:16:37;;;;;;;24.15;14.10;;;;;;;20.93;100.00;100600.41;5085478;28;20032;-78
2022/07/25 02:19:03;;;;;;;17.10;13.00;;;;;;;20.95;100.00;100589.94;5084368;28;20058;-78
2022/07/25 02:21:29;;;;;;;19.40;12.77;;;;;;;20.87;100.00;100588.16;5068708;28;20025;-79
2022/07/25 02:23:54;;;;;;;25.85;17.20;;;;;;;20.92;100.00;100587.56;5084472;28;20047;-79
2022/07/25 02:26:20;;;;;;;24.13;15.70;;;;;;;20.91;100.00;100581.13;5102154;28;20028;-78
2022/07/25 02:28:45;;;;;;;25.27;13.85;;;;;;;20.85;100.00;100581.06;5043026;28;20059;-79
2022/07/25 02:31:11;;;;;;;17.10;12.43;;;;;;;20.88;100.00;100572.31;5092657;28;20051;-80
2022/07/25 02:33:36;;;;;;;17.27;12.82;;;;;;;20.85;100.00;100575.50;5065373;28;20036;-79
2022/07/25 02:36:02;;;;;;;22.88;13.40;;;;;;;20.75;100.00;100570.25;5070900;28;20177;-79
2022/07/25 02:38:28;;;;;;;22.88;12.18;;;;;;;20.78;100.00;100580.13;5052406;28;20040;-79
2022/07/25 02:40:54;;;;;;;19.00;13.35;;;;;;;20.79;100.00;100573.47;5106686;28;20032;-78
2022/07/25 02:43:20;;;;;;;22.67;12.45;;;;;;;20.80;100.00;100561.31;5087589;28;20035;-78
2022/07/25 02:45:46;;;;;;;23.55;12.93;;;;;;;20.83;100.00;100560.91;5106113;28;20031;-78
2022/07/25 02:48:11;;;;;;;25.40;13.40;;;;;;;20.92;100.00;100565.28;5087132;28;20035;-79
2022/07/25 02:50:37;;;;;;;18.30;12.07;;;;;;;20.81;100.00;100561.09;5054330;28;20040;-78
2022/07/25 02:53:03;;;;;;;18.88;12.73;;;;;;;20.73;100.00;100556.50;5070821;28;20352;-78
2022/07/25 02:55:29;;;;;;;24.17;13.23;;;;;;;20.81;100.00;100561.09;5069344;28;20095;-78
2022/07/25 02:57:55;;;;;;;20.48;11.63;;;;;;;20.74;100.00;100551.81;5049750;28;20033;-78
2022/07/25 03:00:21;;;;;;;24.58;13.18;;;;;;;20.69;100.00;100551.53;5071067;28;20040;-78
2022/07/25 03:02:47;;;;;;;18.58;11.38;;;;;;;20.71;100.00;100550.28;5087438;28;20040;-78
2022/07/25 03:05:14;;;;;;;20.63;12.55;;;;;;;20.64;100.00;100551.25;5067759;28;20055;-78
2022/07/25 03:07:40;;;;;;;19.88;12.23;;;;;;;20.69;100.00;100551.53;5084230;28;20075;-79
2022/07/25 03:10:07;;;;;;;23.35;12.00;;;;;;;20.63;100.00;100555.97;5080824;28;20124;-79
2022/07/25 03:12:33;;;;;;;23.75;11.95;;;;;;;20.63;100.00;100547.63;5086186;28;20445;-79
2022/07/25 03:15:00;;;;;;;16.15;10.98;;;;;;;20.65;100.00;100542.72;5102196;28;20027;-79
2022/07/25 03:17:27;;;;;;;21.67;11.70;;;;;;;20.60;100.00;100534.06;5084659;28;20129;-79
2022/07/25 03:19:56;;;;;;;19.05;11.63;;;;;;;20.66;100.00;100540.78;5052823;28;20544;-79
2022/07/25 03:22:22;;;;;;;19.98;11.45;;;;;;;20.70;100.00;100539.34;5053745;28;20012;-79
2022/07/25 03:24:48;;;;;;;21.60;11.73;;;;;;;20.68;100.00;100533.13;5061174;28;20082;-79
2022/07/25 03:27:14;;;;;;;15.32;10.80;;;;;;;20.52;100.00;100506.38;5084363;28;20028;-81
2022/07/25 03:29:40;;;;;;;20.50;11.10;;;;;;;20.63;100.00;100525.38;5086863;28;20039;-78
2022/07/25 03:32:06;;;;;;;17.20;10.75;;;;;;;20.65;100.00;100526.03;5083772;28;20045;-81
2022/07/25 03:34:32;;;;;;;19.50;10.88;;;;;;;20.65;100.00;100514.03;5031844;28;20043;-81
2022/07/25 03:36:59;;;;;;;21.05;11.02;;;;;;;20.68;100.00;100520.06;5081535;28;20063;-81
2022/07/25 03:39:27;;;;;;;18.30;11.10;;;;;;;20.68;100.00;100508.09;5048067;28;20033;-80
2022/07/25 03:41:53;;;;;;;19.38;10.85;;;;;;;20.69;100.00;100512.56;5078821;28;20032;-79
2022/07/25 03:44:20;;;;;;;16.98;10.18;;;;;;;20.66;100.00;100522.19;5080192;28;20052;-80
2022/07/25 03:46:45;;;;;;;22.90;10.82;;;;;;;20.65;100.00;100519.63;5062751;28;20053;-78
2022/07/25 03:49:11;;;;;;;15.10;9.63;;;;;;;20.64;100.00;100512.31;5065077;28;20039;-79
2022/07/25 03:51:36;;;;;;;16.90;9.88;;;;;;;20.56;100.00;100505.78;5066122;28;20028;-79
2022/07/25 03:54:02;;;;;;;17.02;9.98;;;;;;;20.54;100.00;100513.44;5081571;28;20052;-80
2022/07/25 03:56:30;;;;;;;20.70;10.27;;;;;;;20.61;100.00;100512.66;5062308;28;20094;-79
2022/07/25 03:58:55;;;;;;;18.42;10.30;;;;;;;20.54;100.00;100515.38;5082387;28;20040;-80
2022/07/25 04:01:21;;;;;;;15.05;9.77;;;;;;;20.61;100.00;100502.41;5066442;28;20514;-80
2022/07/25 04:03:46;;;;;;;14.70;9.80;;;;;;;20.69;100.00;100513.47;5062355;28;20043;-80
2022/07/25 04:06:12;;;;;;;14.18;9.52;;;;;;;20.67;100.00;100496.09;5044924;28;20059;-81
2022/07/25 04:08:37;;;;;;;18.15;9.43;;;;;;;20.80;100.00;100505.66;5076394;28;20391;-78
2022/07/25 04:11:03;;;;;;;36.75;9.50;;;;;;;20.92;100.00;100506.84;5071796;28;20032;-80
2022/07/25 04:13:29;;;;;;;20.42;9.40;;;;;;;20.89;100.00;100496.09;5038282;28;20059;-80
2022/07/25 04:15:55;;;;;;;17.52;9.68;;;;;;;20.84;100.00;100484.69;5075897;28;20041;-81
2022/07/25 04:18:21;;;;;;;20.45;9.27;;;;;;;20.81;100.00;100485.97;5061203;28;20040;-80
2022/07/25 04:20:46;;;;;;;11.40;8.48;;;;;;;20.88;100.00;100488.81;5046778;28;20119;-80
2022/07/25 04:23:12;;;;;;;15.23;9.05;;;;;;;20.94;100.00;100488.03;5075889;28;20036;-80
2022/07/25 04:25:38;;;;;;;15.13;8.88;;;;;;;20.98;100.00;100480.16;5072173;28;20111;-78
2022/07/25 04:28:04;;;;;;;15.15;9.15;;;;;;;21.04;100.00;100483.00;5070814;28;20041;-78
2022/07/25 04:30:29;;;;;;;20.40;8.90;;;;;;;21.16;100.00;100488.88;5078509;28;20040;-78
2022/07/25 04:32:55;;;;;;;15.75;9.70;;;;;;;21.09;100.00;100480.47;5081389;28;20071;-78
2022/07/25 04:35:21;;;;;;;15.30;8.63;;;;;;;21.22;100.00;100479.72;5064748;28;20039;-79
2022/07/25 04:37:47;;;;;;;14.50;8.27;;;;;;;21.09;100.00;100472.09;5079654;28;20085;-78
2022/07/25 04:40:12;;;;;;;13.35;8.32;;;;;;;21.09;100.00;100480.47;5079030;28;20119;-77
2022/07/25 04:42:37;;;;;;;23.42;8.57;;;;;;;21.17;100.00;100476.69;5060979;28;20040;-78
2022/07/25 04:45:03;;;;;;;14.50;8.30;;;;;;;21.21;100.00;100485.50;5075296;28;20024;-78
2022/07/25 04:47:29;;;;;;;16.77;7.97;;;;;;;21.28;100.00;100476.16;5073848;28;20049;-78
2022/07/25 04:49:55;;;;;;;12.98;8.48;;;;;;;21.50;100.00;100487.28;5061895;28;20040;-79
2022/07/25 04:52:20;;;;;;;16.13;8.10;;;;;;;21.63;100.00;100492.94;5062231;28;20032;-79
2022/07/25 04:54:46;;;;;;;14.30;9.13;;;;;;;21.64;100.00;100474.28;5080934;28;20502;-79
2022/07/25 04:57:11;;;;;;;11.90;9.15;;;;;;;21.54;100.00;100476.56;5080226;28;20040;-79
2022/07/25 04:59:37;;;;;;;18.15;8.90;;;;;;;21.70;100.00;100483.78;5079024;28;20064;-79
2022/07/25 05:02:02;;;;;;;14.57;8.27;;;;;;;21.46;100.00;100478.44;5062939;28;20028;-79
2022/07/25 05:04:28;;;;;;;14.85;8.45;;;;;;;21.47;100.00;100473.72;5082508;28;20037;-80
2022/07/25 05:06:53;;;;;;;17.80;8.68;;;;;;;21.48;100.00;100475.47;5047422;28;20024;-81
2022/07/25 05:09:19;;;;;;;14.48;8.25;;;;;;;21.68;100.00;100470.03;5078537;28;20433;-80
2022/07/25 05:11:44;;;;;;;13.80;8.32;;;;;;;21.75;100.00;100472.88;5064085;28;20039;-80
2022/07/25 05:14:10;;;;;;;17.10;9.32;;;;;;;21.90;100.00;100472.75;5052142;28;20416;-81
2022/07/25 05:16:35;;;;;;;12.00;8.52;;;;;;;21.95;100.00;100479.41;5074041;28;20047;-80
2022/07/25 05:19:01;;;;;;;14.82;8.00;;;;;;;22.08;100.00;100492.56;5081180;28;20034;-80
2022/07/25 05:21:26;;;;;;;14.52;8.73;;;;;;;22.04;100.00;100499.63;5049289;28;20086;-80
2022/07/25 05:23:52;;;;;;;14.93;8.85;;;;;;;22.28;100.00;100498.22;5081137;28;20131;-78
2022/07/25 05:26:18;;;;;;;13.95;9.10;;;;;;;22.26;100.00;100505.09;5082107;28;20060;-79
2022/07/25 05:28:43;;;;;;;14.32;8.95;;;;;;;22.38;100.00;100484.81;5067158;28;20032;-78
2022/07/25 05:31:09;;;;;;;15.85;9.43;;;;;;;22.47;100.00;100498.59;5059074;28;20053;-78
2022/07/25 05:33:34;;;;;;;16.80;9.05;;;;;;;22.58;100.00;100492.41;5078253;28;20071;-78
2022/07/25 05:36:02;;;;;;;14.50;9.93;;;;;;;22.61;100.00;100491.09;5082955;28;20067;-79
2022/07/25 05:38:27;;;;;;;19.98;9.63;;;;;;;22.67;100.00;100481.91;5083002;28;20560;-80
2022/07/25 05:40:53;;;;;;;17.02;9.48;;;;;;;22.56;100.00;100472.19;5083925;28;20021;-80
2022/07/25 05:43:19;;;;;;;18.17;9.23;;;;;;;22.70;100.00;100478.69;5084787;28;20403;-79
2022/07/25 05:45:46;;;;;;;14.20;8.65;;;;;;;22.70;100.00;100482.31;5085869;28;20033;-80
2022/07/25 05:48:12;;;;;;;16.77;8.80;;;;;;;22.54;100.00;100475.19;5068025;28;20043;-80
2022/07/25 05:50:38;;;;;;;10.93;8.30;;;;;;;22.72;100.00;100476.53;5048148;28;20036;-80
2022/07/25 05:53:04;;;;;;;10.60;7.57;;;;;;;22.72;100.00;100482.13;5063956;28;20566;-80
2022/07/25 05:55:29;;;;;;;10.27;7.82;;;;;;;22.90;100.00;100485.16;5056279;28;20053;-79
2022/07/25 05:57:55;;;;;;;12.98;7.43;;;;;;;23.07;100.00;100474.50;5057989;28;20036;-79
2022/07/25 06:00:21;;;;;;;10.18;7.13;;;;;;;23.48;98.22;100483.72;5084963;28;20072;-79
2022/07/25 06:02:46;;;;;;;13.80;7.63;;;;;;;23.41;97.86;100488.47;5084478;28;20029;-79
2022/07/25 06:05:12;;;;;;;9.43;6.97;;;;;;;23.52;97.34;100487.81;5084900;28;20060;-79
2022/07/25 06:07:38;;;;;;;13.80;7.18;;;;;;;23.49;98.20;100486.28;5067414;28;20025;-80
2022/07/25 06:10:04;;;;;;;9.60;6.70;;;;;;;23.29;97.74;100485.47;5068153;28;20039;-80
2022/07/25 06:12:32;;;;;;;15.95;6.90;;;;;;;23.29;98.66;100486.31;5084570;28;20041;-79
2022/07/25 06:14:58;;;;;;;10.63;6.50;;;;;;;23.48;96.54;100487.38;5049718;28;20044;-78
2022/07/25 06:17:23;;;;;;;11.07;5.93;;;;;;;23.38;95.96;100484.19;5063279;28;20037;-79
2022/07/25 06:19:49;;;;;;;12.98;5.57;;;;;;;23.42;96.07;100485.44;5049009;28;20044;-79
2022/07/25 06:22:14;;;;;;;9.55;6.30;;;;;;;23.37;96.74;100482.44;5046265;28;20831;-79
2022/07/25 06:24:40;;;;;;;13.90;5.93;;;;;;;23.57;96.13;100493.59;5063444;28;20045;-80
2022/07/25 06:27:06;;;;;;;7.40;6.13;;;;;;;23.59;95.56;100488.66;5085460;28;20040;-80
2022/07/25 06:29:32;;;;;;;9.73;6.10;;;;;;;23.26;97.84;100494.25;5083780;28;20056;-80
2022/07/25 06:31:58;;;;;;;8.98;6.10;;;;;;;23.08;98.71;100492.09;5084189;28;20068;-79
2022/07/25 06:34:24;;;;;;;11.55;6.18;;;;;;;23.17;99.89;100495.53;5066178;28;20033;-79
2022/07/25 06:36:49;;;;;;;11.70;6.50;;;;;;;23.11;99.64;100497.25;5045458;28;20032;-78
2022/07/25 06:39:15;;;;;;;8.70;5.90;;;;;;;23.40;98.65;100498.78;5063640;28;20552;-80
2022/07/25 06:41:40;;;;;;;8.90;6.18;;;;;;;23.36;98.64;100499.44;5083768;28;20098;-79
2022/07/25 06:44:06;;;;;;;12.45;6.22;;;;;;;23.50;96.79;100506.75;5065876;28;20037;-80
2022/07/25 06:46:32;;;;;;;16.55;6.13;;;;;;;23.61;98.86;100505.22;5065211;28;20056;-79
2022/07/25 06:48:58;;;;;;;13.23;5.25;;;;;;;23.47;95.27;100504.38;5048820;28;20052;-81
2022/07/25 06:51:28;;;;;;;11.82;5.55;;;;;;;23.51;96.14;100504.78;5083847;28;20029;-79
2022/07/25 06:53:55;;;;;;;8.50;5.82;;;;;;;23.41;97.69;100505.22;5042801;28;20119;-80
2022/07/25 06:56:21;;;;;;;13.40;5.18;;;;;;;23.71;96.71;100501.97;5056348;28;20063;-77
2022/07/25 06:58:46;;;;;;;9.00;5.80;;;;;;;23.67;97.58;100499.59;5077113;28;20496;-78
2022/07/25 07:01:12;;;;;;;9.48;5.00;;;;;;;23.97;95.47;100501.97;5060644;28;20020;-80
2022/07/25 07:03:38;;;;;;;9.48;5.03;;;;;;;23.96;92.61;100497.47;5043125;28;20093;-82
2022/07/25 07:06:05;;;;;;;6.35;4.75;;;;;;;23.83;94.14;100497.50;5075046;28;20044;-79
2022/07/25 07:08:30;;;;;;;7.50;4.85;;;;;;;24.01;93.49;100503.25;5079063;28;20472;-79
2022/07/25 07:10:56;;;;;;;11.02;4.95;;;;;;;23.95;93.86;100501.31;5055126;28;20040;-80
2022/07/25 07:13:22;;;;;;;5.72;3.63;;;;;;;24.00;92.52;100498.72;5074381;28;20127;-78
2022/07/25 07:15:49;;;;;;;6.35;3.90;;;;;;;23.74;93.35;100498.75;5053079;28;20055;-78
2022/07/25 07:18:16;;;;;;;5.93;3.63;;;;;;;23.66;93.18;100495.13;5078593;28;20051;-78
2022/07/25 07:20:42;;;;;;;5.95;3.58;;;;;;;23.56;93.47;100502.22;5037744;28;20396;-78
2022/07/25 07:23:08;;;;;;;5.57;3.92;;;;;;;23.50;92.11;100498.34;5073985;28;20039;-78
2022/07/25 07:25:33;;;;;;;5.65;3.30;;;;;;;23.62;90.54;100499.41;5075188;28;20040;-78
2022/07/25 07:27:59;;;;;;;8.52;3.20;;;;;;;23.65;89.53;100504.56;5075448;28;20074;-77
2022/07/25 07:30:26;;;;;;;4.38;3.17;;;;;;;23.75;87.97;100514.47;5036352;28;20523;-78
2022/07/25 07:32:51;;;;;;;4.38;2.60;;;;;;;23.93;87.36;100502.63;5047694;28;20044;-79
2022/07/25 07:35:18;;;;;;;9.95;3.45;;;;;;;24.12;87.92;100506.44;5051290;28;20068;-79
2022/07/25 07:37:45;;;;;;;5.28;2.97;;;;;;;23.94;85.05;100507.13;5057004;28;20039;-79
2022/07/25 07:40:14;;;;;;;5.57;3.53;;;;;;;24.01;86.25;100517.22;5055501;28;20025;-80
2022/07/25 07:42:41;;;;;;;11.75;2.75;;;;;;;23.87;84.67;100509.09;5072023;28;20096;-79
2022/07/25 07:45:14;;;;;;;9.38;2.75;;;;;;;24.26;83.10;100516.50;5077433;28;20068;-79
2022/07/25 07:47:40;;;;;;;4.05;2.35;;;;;;;24.34;80.69;100509.81;5079342;28;20495;-80
2022/07/25 07:50:07;;;;;;;3.30;2.30;;;;;;;24.18;81.49;100513.97;5078162;28;20035;-80
2022/07/25 07:52:32;;;;;;;5.40;2.55;;;;;;;24.30;82.55;100517.81;5081687;28;20059;-79
2022/07/25 07:57:42;;;;;;;9.02;2.40;;;;;;;24.01;83.03;100521.97;5061168;28;20075;-79
2022/07/25 08:00:08;;;;;;;7.75;2.30;;;;;;;23.67;86.68;100521.97;5035164;28;20119;-79
2022/07/25 08:02:46;;;;;;;7.40;2.47;;;;;;;23.85;85.93;100521.34;5058504;28;20158;-79
2022/07/25 08:05:19;;;;;;;5.65;2.55;;;;;;;24.01;86.46;100530.38;5073829;28;20029;-80
2022/07/25 08:07:44;;;;;;;;;;;;;;;24.46;85.98;100519.22;5077988;28;20028;-79
2022/07/25 08:10:10;;;;;;;6.80;2.10;;;;;;;25.56;80.97;100515.34;5060543;28;20332;-80
2022/07/25 08:12:39;;;;;;;6.07;2.25;;;;;;;26.29;77.21;100522.22;5076423;28;20299;-80
2022/07/25 08:15:05;;;;;;;5.93;2.20;;;;;;;26.87;76.01;100518.03;5075658;28;20044;-81
2022/07/25 08:17:30;;;;;;;13.85;2.20;;;;;;;26.89;74.92;100529.03;5060202;28;20037;-81
2022/07/25 08:19:56;;;;;;;3.72;1.70;;;;;;;27.35;74.12;100526.63;5056211;28;20056;-80
2022/07/25 08:22:21;;;;;;;4.18;1.85;;;;;;;27.71;72.69;100530.38;5041811;28;20033;-80
2022/07/25 08:24:47;;;;;;;8.23;1.95;;;;;;;27.56;71.77;100514.81;5034593;28;20049;-81
2022/07/25 08:27:12;;;;;;;6.53;1.75;;;;;;;27.77;72.24;100520.97;5056700;28;20429;-80
2022/07/25 08:29:38;;;;;;;12.23;2.17;;;;;;;27.06;75.24;100520.78;5046612;28;20045;-80
2022/07/25 08:32:04;;;;;;;6.80;1.40;;;;;;;26.22;77.89;100525.09;5080180;28;20085;-81
2022/07/25 08:34:29;;;;;;;1.73;1.27;;;;;;;26.31;79.51;100521.97;5028631;28;20032;-81
2022/07/25 08:36:55;;;;;;;3.17;1.27;;;;;;;26.07;81.27;100534.97;5061860;28;20046;-81
2022/07/25 08:39:20;;;;;;;7.45;1.90;;;;;;;25.83;82.65;100527.19;5051080;28;20040;-81
2022/07/25 08:41:46;;;;;;;4.70;1.50;;;;;;;26.21;82.02;100536.56;5048357;28;20040;-79
2022/07/25 08:44:13;;;;;;;6.15;1.65;;;;;;;26.75;80.43;100534.84;5076981;28;20032;-79
2022/07/25 08:46:40;;;;;;;7.28;1.42;;;;;;;26.74;79.54;100526.63;5061118;28;20036;-80
2022/07/25 08:49:07;;;;;;;4.15;1.50;;;;;;;27.03;79.19;100532.50;5079167;28;20039;-80
2022/07/25 08:51:33;;;;;;;5.82;1.58;;;;;;;27.26;78.73;100540.16;5058168;28;20036;-80
2022/07/25 08:53:59;;;;;;;8.25;1.60;;;;;;;27.13;78.48;100544.03;5050472;28;20392;-80
2022/07/25 08:56:25;;;;;;;4.95;1.58;;;;;;;27.10;78.33;100539.72;5080425;28;20081;-81
2022/07/25 08:58:50;;;;;;;7.72;1.30;;;;;;;26.99;81.33;100548.13;5049381;28;20103;-82
2022/07/25 09:01:16;;;;;;;3.85;1.50;;;;;;;27.83;77.10;100536.88;5064766;28;20502;-81
2022/07/25 09:03:42;;;;;;;10.07;1.58;;;;;;;27.73;78.50;100540.28;5065579;28;20111;-81
2022/07/25 09:06:20;;;;;;;3.30;1.50;;;;;;;27.82;77.72;100544.44;5080921;28;20038;-81
2022/07/25 09:09:04;;;;;;;3.28;1.35;;;;;;;27.74;77.40;100529.88;5062981;28;20124;-81
2022/07/25 09:11:31;;;;;;;5.38;1.58;;;;;;;28.38;75.39;100538.44;5103317;28;20055;-81
2022/07/25 09:14:05;;;;;;;4.50;1.50;;;;;;;27.51;79.13;100537.19;5065427;28;20024;-79
2022/07/25 09:16:34;;;;;;;6.82;1.52;;;;;;;28.09;75.20;100543.13;5085148;28;20101;-80
2022/07/25 09:19:26;;;;;;;4.75;1.65;;;;;;;27.66;76.59;100531.09;5068419;28;20115;-80
2022/07/25 09:22:06;;;;;;;3.08;1.10;;;;;;;27.56;77.91;100539.28;5075677;28;20055;-81
2022/07/25 09:24:32;;;;;;;3.83;1.25;;;;;;;27.37;74.87;100541.31;5081175;28;20039;-81
2022/07/25 09:27:00;;;;;;;5.63;1.17;;;;;;;27.75;75.32;100543.72;5062954;28;20028;-81
2022/07/25 09:29:29;;;;;;;3.85;1.20;;;;;;;27.92;75.70;100543.81;5100733;28;20036;-80
2022/07/25 09:31:56;;;;;;;2.97;1.27;;;;;;;27.79;75.94;100552.50;5061955;28;20365;-78
2022/07/25 09:34:33;;;;;;;9.13;1.20;;;;;;;28.30;75.00;100561.34;5078856;28;20479;-79
2022/07/25 09:37:00;;;;;;;5.10;1.02;;;;;;;29.04;72.49;100557.88;5077997;28;20043;-81
2022/07/25 09:39:39;;;;;;;4.43;1.05;;;;;;;29.20;71.98;100553.41;5082165;28;20036;-81
2022/07/25 09:42:24;;;;;;;10.73;1.65;;;;;;;28.91;72.81;100561.84;5082352;28;20025;-81
2022/07/25 09:45:06;;;;;;;6.07;1.60;;;;;;;29.30;72.00;100565.75;5082278;28;20037;-81
2022/07/25 09:47:34;;;;;;;7.65;1.13;;;;;;;28.76;74.16;100568.00;5080717;28;20062;-80
2022/07/25 09:50:00;;;;;;;6.07;1.23;;;;;;;28.80;70.43;100572.06;5056755;28;20021;-81
2022/07/25 09:52:26;;;;;;;2.67;0.98;;;;;;;28.09;76.15;100571.28;5063974;28;20142;-81
2022/07/25 09:54:53;;;;;;;5.13;1.20;;;;;;;29.42;72.20;100564.84;5060054;28;20467;-80
2022/07/25 09:57:20;;;;;;;4.72;1.20;;;;;;;28.69;74.00;100573.78;5076589;28;20110;-82
2022/07/25 09:59:47;;;;;;;3.83;1.10;;;;;;;28.82;72.88;100578.28;5065483;28;20037;-81
2022/07/25 10:02:39;;;;;;;6.82;1.10;;;;;;;28.40;74.89;100581.28;5064391;28;20102;-81
2022/07/25 10:05:13;;;;;;;7.80;1.60;;;;;;;27.46;79.55;100573.63;5064006;28;20037;-80
2022/07/25 10:07:43;;;;;;;7.75;1.30;;;;;;;28.17;77.12;100577.41;5046352;28;20036;-82
2022/07/25 10:10:20;;;;;;;3.80;0.90;;;;;;;28.59;77.50;100571.63;5065893;28;20039;-82
2022/07/25 10:13:10;;;;;;;4.40;1.30;;;;;;;28.08;77.25;100570.44;5082293;28;20037;-81
2022/07/25 10:15:39;;;;;;;14.07;1.30;;;;;;;27.47;77.54;100580.97;5080549;28;20167;-81
2022/07/25 10:18:07;;;;;;;6.72;1.00;;;;;;;28.36;75.27;100574.44;5083490;28;20043;-82
2022/07/25 10:20:33;;;;;;;2.92;0.98;;;;;;;28.51;74.17;100574.78;5070897;28;20066;-81
2022/07/25 10:22:59;;;;;;;5.78;1.00;;;;;;;29.37;72.18;100582.53;5051280;28;20036;-82
2022/07/25 10:25:25;;;;;;;5.40;1.10;;;;;;;29.51;69.89;100571.75;5047512;28;20037;-82
2022/07/25 10:27:59;;;;;;;2.30;0.90;;;;;;;29.99;66.12;100573.19;5080900;28;20089;-82
2022/07/25 10:30:39;;;;;;;4.07;1.10;;;;;;;29.62;66.23;100578.44;5061657;28;20393;-82
2022/07/25 10:33:12;;;;;;;3.58;0.90;;;;;;;30.11;65.93;100577.88;5063092;28;20029;-82
2022/07/25 10:35:38;;;;;;;2.00;1.10;;;;;;;29.98;64.89;100588.41;5079316;28;20033;-82
2022/07/25 10:38:05;;;;;;;3.38;1.10;;;;;;;28.94;68.92;100584.75;5063663;28;20067;-82
2022/07/25 10:40:42;;;;;;;9.13;1.17;;;;;;;29.12;68.57;100592.19;5079595;28;20090;-82
2022/07/25 10:43:19;;;;;;;6.65;1.25;;;;;;;29.93;64.15;100582.69;5063000;28;20388;-82
2022/07/25 10:45:49;;;;;;;7.78;1.25;;;;;;;29.12;65.86;100571.56;5063752;28;20036;-82
2022/07/25 10:48:23;;;;;;;3.95;1.45;;;;;;;28.12;70.14;100587.69;5062505;28;20032;-82
2022/07/25 10:50:57;;;;;;;4.07;1.30;;;;;;;28.86;67.88;100582.34;5052986;28;20054;-82
2022/07/25 10:53:32;;;;;;;6.03;1.40;;;;;;;28.83;68.38;100573.50;5059272;28;20064;-82
2022/07/25 10:56:06;;;;;;;5.38;1.30;;;;;;;29.31;68.12;100583.53;5042985;28;20041;-82
2022/07/25 10:58:59;;;;;;;3.90;1.30;;;;;;;29.39;67.78;100590.75;5059220;28;20033;-82
2022/07/25 11:01:30;;;;;;;5.82;1.60;;;;;;;29.64;63.28;100595.97;5075146;28;20086;-80
2022/07/25 11:04:01;;;;;;;5.68;1.30;;;;;;;29.40;65.23;100587.66;5060012;28;20063;-80
2022/07/25 11:06:30;;;;;;;3.67;1.42;;;;;;;29.34;64.69;100591.50;5044422;28;20029;-80
2022/07/25 11:08:59;;;;;;;5.57;1.30;;;;;;;29.03;66.15;100598.47;5043550;28;20105;-80
2022/07/25 11:11:50;;;;;;;7.55;1.42;;;;;;;29.46;64.03;100588.59;5043806;28;20037;-81
2022/07/25 11:14:40;;;;;;;5.60;1.67;;;;;;;29.41;64.79;100588.50;5061318;28;20041;-81
2022/07/25 11:17:13;;;;;;;3.28;1.15;;;;;;;29.05;64.45;100602.72;5042991;28;20089;-81